Time;durP1;ratioP1;P1;durP2;ratioP2;P2;SDS_P1;SDS_P2;PMS_P1;PMS_P2;Temp;Humidity;BMP_temperature;BMP_pressure;BME280_temperature;BME280_humidity;BME280_pressure;Samples;Min_cycle;Max_cycle;Signal;HPM_P1;HPM_P2
2022/04/24 00:00:37;;;;;;;12.88;9.90;;;;;;;7.49;63.38;99540.97;5002857;28;20042;-74
2022/04/24 00:03:02;;;;;;;12.70;9.73;;;;;;;7.50;63.59;99537.47;4999924;28;20041;-74
2022/04/24 00:05:28;;;;;;;13.88;10.48;;;;;;;7.50;63.45;99530.47;5002681;28;20049;-74
2022/04/24 00:07:53;;;;;;;11.15;9.57;;;;;;;7.49;63.55;99528.69;5008682;28;20046;-74
2022/04/24 00:10:18;;;;;;;11.43;8.75;;;;;;;7.46;63.30;99524.34;5002690;28;20034;-74
2022/04/24 00:12:44;;;;;;;14.73;10.70;;;;;;;7.47;63.64;99517.38;4999878;28;20421;-75
2022/04/24 00:15:10;;;;;;;13.45;10.38;;;;;;;7.45;63.24;99522.63;5001518;28;20101;-75
2022/04/24 00:17:37;;;;;;;11.38;9.10;;;;;;;7.44;63.45;99512.13;5002346;28;20049;-75
2022/04/24 00:20:03;;;;;;;11.82;9.40;;;;;;;7.41;63.85;99505.19;5022534;28;20111;-74
2022/04/24 00:22:29;;;;;;;11.32;9.32;;;;;;;7.42;63.52;99500.78;5021873;28;20036;-75
2022/04/24 00:24:54;;;;;;;9.85;8.45;;;;;;;7.40;63.70;99495.53;5021174;28;20026;-75
2022/04/24 00:27:19;;;;;;;12.48;9.15;;;;;;;7.39;63.63;99500.81;5018027;28;20045;-76
2022/04/24 00:29:44;;;;;;;10.77;9.20;;;;;;;7.37;63.47;99499.97;5019471;28;20030;-74
2022/04/24 00:32:10;;;;;;;12.98;9.57;;;;;;;7.35;63.45;99502.59;5022296;28;20067;-75
2022/04/24 00:34:35;;;;;;;13.40;9.52;;;;;;;7.33;63.53;99495.63;5018648;28;20705;-75
2022/04/24 00:37:00;;;;;;;12.80;9.60;;;;;;;7.28;63.87;99494.78;5017559;28;20500;-75
2022/04/24 00:39:26;;;;;;;14.02;10.88;;;;;;;7.23;64.09;99497.44;5021888;28;20037;-75
2022/04/24 00:41:52;;;;;;;12.95;9.75;;;;;;;7.18;64.26;99499.28;5012312;28;20046;-75
2022/04/24 00:44:18;;;;;;;12.15;9.82;;;;;;;7.13;64.41;99493.19;5006690;28;20084;-75
2022/04/24 00:47:11;;;;;;;10.50;8.80;;;;;;;7.08;64.61;99494.97;5002559;28;20048;-76
2022/04/24 00:49:38;;;;;;;12.25;9.40;;;;;;;7.03;64.34;99495.00;5000783;28;20050;-75
2022/04/24 00:52:04;;;;;;;14.50;9.57;;;;;;;7.01;64.40;99492.38;5000658;28;20121;-75
2022/04/24 00:54:29;;;;;;;13.73;10.02;;;;;;;6.96;64.69;99494.19;5002467;28;20117;-76
2022/04/24 00:56:54;;;;;;;13.02;9.65;;;;;;;6.92;64.84;99494.25;5002009;28;20034;-75
2022/04/24 00:59:20;;;;;;;13.10;10.35;;;;;;;6.90;65.08;99488.13;5006849;28;20033;-75
2022/04/24 01:01:45;;;;;;;13.85;9.98;;;;;;;6.88;65.01;99484.63;5000444;28;20061;-75
2022/04/24 01:04:12;;;;;;;11.63;9.50;;;;;;;6.88;65.33;99488.13;5003679;28;20065;-75
2022/04/24 01:06:40;;;;;;;12.30;9.38;;;;;;;6.88;65.52;99485.50;5006361;28;20124;-75
2022/04/24 01:09:17;;;;;;;11.93;9.27;;;;;;;6.88;65.71;99480.25;5001430;28;20029;-76
2022/04/24 01:11:45;;;;;;;13.60;10.15;;;;;;;6.87;65.81;99473.28;5005910;28;20144;-74
2022/04/24 01:14:11;;;;;;;10.82;8.32;;;;;;;6.87;65.66;99478.53;5003348;28;20042;-75
2022/04/24 01:16:37;;;;;;;11.60;9.32;;;;;;;6.86;65.58;99471.53;5003886;28;20404;-76
2022/04/24 01:19:04;;;;;;;10.90;8.52;;;;;;;6.86;65.81;99470.66;5005130;28;20048;-75
2022/04/24 01:21:29;;;;;;;13.68;8.95;;;;;;;6.84;66.14;99467.19;5014918;28;20080;-76
2022/04/24 01:23:54;;;;;;;10.80;8.73;;;;;;;6.80;66.14;99468.97;5024343;28;20062;-75
2022/04/24 01:26:20;;;;;;;10.23;8.20;;;;;;;6.76;66.09;99469.88;5015967;28;20040;-74
2022/04/24 01:28:45;;;;;;;9.52;8.00;;;;;;;6.69;66.30;99463.81;5004237;28;20150;-75
2022/04/24 01:31:10;;;;;;;13.57;8.73;;;;;;;6.64;66.59;99449.84;5004998;28;20065;-76
2022/04/24 01:33:36;;;;;;;10.60;8.35;;;;;;;6.64;66.40;99459.47;5005608;28;20042;-75
2022/04/24 01:36:01;;;;;;;11.52;8.90;;;;;;;6.60;66.63;99453.38;5010480;28;20108;-76
2022/04/24 01:38:29;;;;;;;10.15;8.40;;;;;;;6.56;66.51;99457.78;5003651;28;20030;-76
2022/04/24 01:40:54;;;;;;;12.68;9.20;;;;;;;6.52;66.90;99450.84;5005950;28;20050;-75
2022/04/24 01:43:22;;;;;;;11.80;8.82;;;;;;;6.48;67.02;99451.72;5002324;28;20041;-75
2022/04/24 01:45:48;;;;;;;11.40;8.75;;;;;;;6.43;67.49;99450.88;5005673;28;20072;-76
2022/04/24 01:48:13;;;;;;;10.48;8.20;;;;;;;6.40;67.51;99453.53;5004430;28;20125;-75
2022/04/24 01:50:38;;;;;;;11.38;9.00;;;;;;;6.37;67.59;99443.06;5003825;28;20049;-76
2022/04/24 01:53:04;;;;;;;11.65;9.38;;;;;;;6.33;67.57;99438.72;5005646;28;20092;-76
2022/04/24 01:55:29;;;;;;;14.50;9.65;;;;;;;6.27;68.61;99442.25;5002886;28;20043;-76
2022/04/24 01:57:54;;;;;;;15.93;10.48;;;;;;;6.24;69.00;99449.28;5003644;28;20037;-76
2022/04/24 02:00:20;;;;;;;13.27;9.70;;;;;;;6.27;68.80;99439.63;5004440;28;20093;-75
2022/04/24 02:02:46;;;;;;;12.05;9.68;;;;;;;6.28;69.14;99443.13;5008597;28;20239;-75
2022/04/24 02:05:12;;;;;;;12.35;9.98;;;;;;;6.27;69.25;99437.00;5002646;28;20061;-75
2022/04/24 02:07:37;;;;;;;13.48;9.23;;;;;;;6.27;69.23;99441.38;5004025;28;20034;-75
2022/04/24 02:10:03;;;;;;;14.50;10.57;;;;;;;6.26;69.02;99432.66;5003389;28;20042;-74
2022/04/24 02:12:30;;;;;;;12.23;9.48;;;;;;;6.27;69.38;99433.53;5002056;28;20089;-77
2022/04/24 02:14:55;;;;;;;12.95;9.93;;;;;;;6.30;69.67;99436.13;5016935;28;20035;-76
2022/04/24 02:17:20;;;;;;;12.98;9.73;;;;;;;6.29;70.07;99426.53;5004233;28;20567;-77
2022/04/24 02:19:46;;;;;;;11.52;9.40;;;;;;;6.32;69.14;99423.88;5003675;28;20045;-77
2022/04/24 02:22:11;;;;;;;13.50;9.50;;;;;;;6.33;69.28;99417.75;5003176;28;20037;-77
2022/04/24 02:24:36;;;;;;;13.77;10.02;;;;;;;6.33;69.52;99412.50;5004643;28;20492;-76
2022/04/24 02:27:02;;;;;;;13.32;9.45;;;;;;;6.34;69.35;99409.88;5000516;28;20176;-76
2022/04/24 02:29:28;;;;;;;12.07;10.02;;;;;;;6.35;69.49;99405.50;5004356;28;20512;-76
2022/04/24 02:31:54;;;;;;;12.95;9.88;;;;;;;6.35;69.08;99408.13;5002847;28;20042;-76
2022/04/24 02:34:19;;;;;;;12.43;10.05;;;;;;;6.32;68.87;99398.53;5002554;28;20121;-75
2022/04/24 02:36:44;;;;;;;14.20;9.38;;;;;;;6.28;69.46;99398.56;5004642;28;20211;-76
2022/04/24 02:39:10;;;;;;;12.05;10.20;;;;;;;6.21;69.30;99396.84;5004419;28;20087;-75
2022/04/24 02:41:35;;;;;;;12.35;9.40;;;;;;;6.18;69.43;99397.75;5002057;28;20109;-76
2022/04/24 02:44:01;;;;;;;13.38;11.02;;;;;;;6.11;70.65;99396.94;5006478;28;20034;-76
2022/04/24 02:46:26;;;;;;;13.88;10.88;;;;;;;6.14;70.22;99390.81;5003820;28;20124;-76
2022/04/24 02:48:51;;;;;;;13.63;10.18;;;;;;;6.14;70.24;99393.44;5007825;28;20107;-76
2022/04/24 02:51:17;;;;;;;12.98;9.70;;;;;;;6.18;69.88;99395.13;5010552;28;20572;-76
2022/04/24 02:53:43;;;;;;;13.60;10.15;;;;;;;6.16;69.95;99394.28;5011182;28;20488;-76
2022/04/24 02:56:08;;;;;;;11.88;9.43;;;;;;;6.20;69.53;99397.75;5012287;28;20060;-76
2022/04/24 02:58:33;;;;;;;12.80;10.35;;;;;;;6.21;68.97;99396.84;5010786;28;20393;-76
2022/04/24 03:00:59;;;;;;;14.63;11.07;;;;;;;6.16;69.63;99389.06;5010678;28;20402;-76
2022/04/24 03:03:25;;;;;;;13.25;10.50;;;;;;;6.12;69.76;99401.28;5009907;28;20599;-76
2022/04/24 03:05:50;;;;;;;13.35;10.52;;;;;;;6.07;70.09;99391.72;5010305;28;20045;-76
2022/04/24 03:08:17;;;;;;;14.68;10.80;;;;;;;5.99;69.99;99399.63;5001052;28;20041;-76
2022/04/24 03:10:42;;;;;;;15.77;11.50;;;;;;;5.99;71.14;99391.75;4999881;28;20034;-76
2022/04/24 03:13:08;;;;;;;13.80;10.85;;;;;;;5.99;71.07;99390.91;5003699;28;20132;-76
2022/04/24 03:15:34;;;;;;;16.77;13.10;;;;;;;6.02;71.67;99396.97;5002687;28;20687;-76
2022/04/24 03:17:59;;;;;;;17.90;12.50;;;;;;;6.05;71.41;99391.75;5001695;28;20036;-77
2022/04/24 03:20:25;;;;;;;16.55;13.18;;;;;;;6.05;70.71;99390.84;5003915;28;20052;-77
2022/04/24 03:22:50;;;;;;;16.00;12.15;;;;;;;6.03;71.25;99390.00;5003953;28;20121;-76
2022/04/24 03:25:16;;;;;;;13.93;11.55;;;;;;;6.00;70.50;99393.53;5003765;28;20037;-77
2022/04/24 03:27:41;;;;;;;15.95;11.48;;;;;;;5.94;70.70;99393.53;5004539;28;20088;-76
2022/04/24 03:30:11;;;;;;;16.67;11.82;;;;;;;5.88;71.48;99393.53;5001151;28;20041;-75
2022/04/24 03:32:37;;;;;;;16.95;12.50;;;;;;;5.85;71.23;99393.56;5000528;28;20050;-75
2022/04/24 03:35:04;;;;;;;19.08;12.88;;;;;;;5.82;71.12;99386.59;5001549;28;20033;-76
2022/04/24 03:37:29;;;;;;;14.98;12.15;;;;;;;5.82;71.08;99396.22;4999640;28;20416;-75
2022/04/24 03:39:55;;;;;;;18.17;13.05;;;;;;;5.74;71.79;99391.00;5003587;28;20037;-76
2022/04/24 03:42:21;;;;;;;16.70;11.95;;;;;;;5.69;71.81;99393.63;5000193;28;20030;-76
2022/04/24 03:44:46;;;;;;;17.25;12.65;;;;;;;5.68;71.99;99385.78;5001333;28;20544;-74
2022/04/24 03:47:13;;;;;;;18.75;13.77;;;;;;;5.66;72.24;99398.91;5002088;28;20045;-76
2022/04/24 03:49:39;;;;;;;17.17;13.20;;;;;;;5.66;72.66;99395.41;5000863;28;20034;-75
2022/04/24 03:52:05;;;;;;;16.05;13.23;;;;;;;5.66;73.02;99392.78;5002989;28;20028;-76
2022/04/24 03:54:30;;;;;;;18.35;14.38;;;;;;;5.68;73.06;99397.13;4996389;28;20034;-76
2022/04/24 03:56:55;;;;;;;15.98;12.10;;;;;;;5.67;73.04;99399.75;5001857;28;20034;-76
2022/04/24 03:59:21;;;;;;;18.23;14.38;;;;;;;5.67;72.79;99398.00;4999740;28;20026;-76
2022/04/24 04:01:47;;;;;;;17.80;13.90;;;;;;;5.68;72.62;99401.47;5002784;28;20038;-75
2022/04/24 04:04:12;;;;;;;19.00;14.20;;;;;;;5.66;73.28;99406.75;5003295;28;20026;-75
2022/04/24 04:06:38;;;;;;;18.20;13.95;;;;;;;5.68;73.27;99406.72;5007115;28;20042;-75
2022/04/24 04:09:03;;;;;;;18.20;13.55;;;;;;;5.69;73.78;99395.41;5000094;28;20038;-77
2022/04/24 04:11:28;;;;;;;18.67;14.18;;;;;;;5.73;74.14;99397.09;5000599;28;20557;-76
2022/04/24 04:13:54;;;;;;;16.33;13.52;;;;;;;5.77;74.11;99398.84;5003115;28;20038;-76
2022/04/24 04:16:19;;;;;;;18.30;14.07;;;;;;;5.82;73.82;99404.06;4996061;28;20129;-76
2022/04/24 04:18:44;;;;;;;18.50;14.38;;;;;;;5.84;73.98;99402.28;5001421;28;20041;-76
2022/04/24 04:21:10;;;;;;;19.40;14.70;;;;;;;5.89;73.93;99395.28;5001717;28;20030;-75
2022/04/24 04:23:35;;;;;;;19.27;13.07;;;;;;;5.94;73.81;99390.91;5008348;28;20124;-75
2022/04/24 04:26:01;;;;;;;17.23;14.07;;;;;;;5.98;73.86;99390.03;5009862;28;20037;-76
2022/04/24 04:28:26;;;;;;;17.38;14.55;;;;;;;6.03;74.03;99393.50;5002437;28;20033;-76
2022/04/24 04:30:52;;;;;;;20.08;14.57;;;;;;;6.10;73.46;99394.31;5001324;28;20137;-76
2022/04/24 04:33:17;;;;;;;21.02;14.80;;;;;;;6.12;73.47;99398.66;5000491;28;20042;-76
2022/04/24 04:35:42;;;;;;;18.80;14.85;;;;;;;6.18;73.34;99392.50;5002835;28;20042;-76
2022/04/24 04:38:08;;;;;;;18.35;13.45;;;;;;;6.26;72.86;99401.22;5007978;28;20044;-76
2022/04/24 04:40:33;;;;;;;17.67;14.13;;;;;;;6.28;73.12;99390.72;5015557;28;20038;-76
2022/04/24 04:42:58;;;;;;;17.38;14.18;;;;;;;6.33;72.91;99392.41;5005592;28;20077;-76
2022/04/24 04:45:25;;;;;;;19.33;14.48;;;;;;;6.44;72.64;99394.09;5002746;28;20034;-75
2022/04/24 04:47:50;;;;;;;17.20;13.68;;;;;;;6.50;72.25;99389.69;5006784;28;20041;-76
2022/04/24 04:50:16;;;;;;;19.38;14.63;;;;;;;6.55;72.48;99387.88;5004214;28;20349;-76
2022/04/24 04:52:41;;;;;;;19.98;13.85;;;;;;;6.62;72.30;99379.97;5005872;28;20038;-76
2022/04/24 04:55:07;;;;;;;18.20;14.07;;;;;;;6.62;72.67;99374.72;5005979;28;20038;-76
2022/04/24 04:57:32;;;;;;;19.23;13.32;;;;;;;6.71;72.41;99386.00;5003674;28;20042;-75
2022/04/24 04:59:57;;;;;;;19.67;14.70;;;;;;;6.77;71.66;99383.31;5006441;28;20033;-76
2022/04/24 05:02:23;;;;;;;18.15;13.70;;;;;;;6.85;71.60;99382.38;5004136;28;20500;-76
2022/04/24 05:04:48;;;;;;;16.52;13.88;;;;;;;6.92;71.28;99377.06;5004489;28;20115;-76
2022/04/24 05:07:13;;;;;;;16.15;12.70;;;;;;;7.00;70.97;99377.84;5007080;28;20137;-76
2022/04/24 05:09:39;;;;;;;18.67;14.93;;;;;;;7.10;71.08;99380.38;5007062;28;20045;-75
2022/04/24 05:12:06;;;;;;;17.83;14.80;;;;;;;7.17;70.13;99377.66;5005530;28;20042;-76
2022/04/24 05:14:32;;;;;;;17.42;14.02;;;;;;;7.24;70.35;99384.59;5000329;28;20137;-76
2022/04/24 05:16:57;;;;;;;18.90;14.32;;;;;;;7.30;70.62;99388.91;5006826;28;20125;-76
2022/04/24 05:19:24;;;;;;;16.92;13.90;;;;;;;7.36;69.94;99385.34;5001236;28;20462;-75
2022/04/24 05:21:49;;;;;;;19.30;14.30;;;;;;;7.46;69.47;99387.84;5005389;28;20385;-76
2022/04/24 05:24:15;;;;;;;19.38;14.00;;;;;;;7.58;69.53;99404.34;5004238;28;20045;-76
2022/04/24 05:26:40;;;;;;;19.05;14.32;;;;;;;7.65;69.22;99385.88;5004131;28;20034;-76
2022/04/24 05:29:06;;;;;;;17.45;13.43;;;;;;;7.74;69.26;99389.28;5005981;28;20057;-76
2022/04/24 05:31:31;;;;;;;17.67;14.27;;;;;;;7.83;68.68;99389.13;5002595;28;20026;-76
2022/04/24 05:33:56;;;;;;;16.98;14.70;;;;;;;7.92;68.31;99390.78;5005058;28;20040;-76
2022/04/24 05:36:22;;;;;;;19.20;14.70;;;;;;;7.99;68.76;99387.16;5000138;28;20042;-76
2022/04/24 05:38:47;;;;;;;17.13;14.45;;;;;;;8.07;68.31;99391.44;5008592;28;20059;-77
2022/04/24 05:41:13;;;;;;;17.00;13.77;;;;;;;8.14;68.40;99384.31;5001378;28;20398;-76
2022/04/24 05:43:38;;;;;;;16.70;14.07;;;;;;;8.19;68.50;99393.00;5004210;28;20520;-77
2022/04/24 05:46:03;;;;;;;16.50;14.13;;;;;;;8.25;68.23;99387.69;5003771;28;20049;-76
2022/04/24 05:48:29;;;;;;;20.55;14.10;;;;;;;8.33;68.16;99387.53;5006987;28;20038;-76
2022/04/24 05:50:54;;;;;;;18.08;14.50;;;;;;;8.47;67.57;99388.25;5000431;28;20100;-76
2022/04/24 05:53:20;;;;;;;17.35;13.27;;;;;;;8.57;67.30;99383.72;5002124;28;20120;-76
2022/04/24 05:55:45;;;;;;;19.30;14.70;;;;;;;8.71;66.83;99380.84;5005041;28;20147;-76
2022/04/24 05:58:11;;;;;;;18.70;14.18;;;;;;;8.82;67.14;99378.88;5004692;28;20037;-76
2022/04/24 06:00:39;;;;;;;17.77;13.93;;;;;;;8.95;66.75;99379.53;5005683;28;20042;-76
2022/04/24 06:03:04;;;;;;;18.77;14.07;;;;;;;9.07;65.90;99371.44;5005486;28;20553;-76
2022/04/24 06:05:30;;;;;;;17.15;13.85;;;;;;;9.15;65.66;99364.25;5002681;28;20042;-75
2022/04/24 06:07:55;;;;;;;20.85;15.20;;;;;;;9.27;65.37;99364.91;5006461;28;20084;-75
2022/04/24 06:10:21;;;;;;;16.65;13.57;;;;;;;9.43;65.28;99356.69;5009353;28;20049;-76
2022/04/24 06:12:54;;;;;;;17.77;13.65;;;;;;;9.52;64.97;99354.75;5002521;28;20081;-76
2022/04/24 06:15:24;;;;;;;16.02;13.38;;;;;;;9.68;64.71;99350.91;5006933;28;20030;-76
2022/04/24 06:17:51;;;;;;;16.52;13.45;;;;;;;9.84;64.38;99344.38;5009545;28;20034;-76
2022/04/24 06:20:18;;;;;;;17.48;12.57;;;;;;;9.99;63.77;99340.56;5005607;28;20442;-77
2022/04/24 06:22:50;;;;;;;15.75;12.23;;;;;;;10.21;62.63;99346.19;5002964;28;20045;-76
2022/04/24 06:25:24;;;;;;;16.15;12.38;;;;;;;10.46;61.71;99335.09;5007998;28;20136;-76
2022/04/24 06:27:53;;;;;;;17.02;13.23;;;;;;;10.66;61.15;99338.09;5021286;28;20038;-76
2022/04/24 06:30:21;;;;;;;16.20;13.15;;;;;;;10.84;60.52;99331.47;5006375;28;20057;-76
2022/04/24 06:32:46;;;;;;;16.10;12.98;;;;;;;11.00;59.20;99320.50;5002128;28;20081;-76
2022/04/24 06:35:14;;;;;;;16.95;12.43;;;;;;;11.22;58.83;99334.00;5002469;28;20030;-77
2022/04/24 06:37:45;;;;;;;13.85;11.77;;;;;;;11.36;58.95;99319.47;5007342;28;20061;-75
2022/04/24 06:40:13;;;;;;;15.05;12.52;;;;;;;11.53;58.16;99312.84;5003560;28;20092;-77
2022/04/24 06:42:49;;;;;;;16.08;12.60;;;;;;;11.67;56.81;99318.56;5019747;28;20645;-77
2022/04/24 06:45:15;;;;;;;14.73;12.57;;;;;;;11.79;56.81;99312.94;5006338;28;20057;-76
2022/04/24 06:47:40;;;;;;;15.73;12.65;;;;;;;11.92;56.10;99301.97;5014361;28;20463;-77
2022/04/24 06:50:06;;;;;;;15.60;11.75;;;;;;;12.01;55.44;99302.56;5014278;28;20243;-77
2022/04/24 06:52:31;;;;;;;15.38;12.32;;;;;;;12.11;55.30;99291.72;5007388;28;20038;-77
2022/04/24 06:55:00;;;;;;;13.98;11.68;;;;;;;12.18;54.56;99294.13;5003358;28;20113;-76
2022/04/24 06:57:25;;;;;;;13.35;11.73;;;;;;;12.35;54.44;99295.34;5009483;28;20038;-77
2022/04/24 06:59:50;;;;;;;13.57;10.55;;;;;;;12.48;54.15;99291.34;5006943;28;20057;-77
2022/04/24 07:02:16;;;;;;;12.77;10.48;;;;;;;12.60;53.49;99277.72;5007957;28;20118;-77
2022/04/24 07:04:41;;;;;;;13.93;9.65;;;;;;;12.71;53.03;99278.19;5005435;28;20064;-77
2022/04/24 07:07:06;;;;;;;12.25;10.07;;;;;;;12.83;53.27;99268.94;5004806;28;20109;-77
2022/04/24 07:09:32;;;;;;;12.45;9.05;;;;;;;12.90;52.29;99273.13;5005263;28;20026;-77
2022/04/24 07:11:57;;;;;;;12.55;9.23;;;;;;;13.00;51.93;99278.09;5008152;28;20523;-77
2022/04/24 07:14:22;;;;;;;13.55;10.73;;;;;;;12.99;52.05;99276.34;5010266;28;20373;-77
2022/04/24 07:16:48;;;;;;;13.25;9.75;;;;;;;13.05;51.06;99277.00;5008138;28;20675;-77
2022/04/24 07:19:14;;;;;;;16.30;10.50;;;;;;;13.05;50.70;99277.00;5009117;28;20038;-77
2022/04/24 07:21:39;;;;;;;12.88;9.63;;;;;;;13.11;50.94;99278.56;5004603;28;20411;-77
2022/04/24 07:24:05;;;;;;;14.45;9.18;;;;;;;13.19;50.55;99275.63;5009816;28;20037;-77
2022/04/24 07:26:30;;;;;;;13.95;9.88;;;;;;;13.27;51.05;99273.59;5009825;28;20438;-77
2022/04/24 07:28:55;;;;;;;12.00;8.88;;;;;;;13.43;50.16;99280.03;5006196;28;20089;-77
2022/04/24 07:31:21;;;;;;;13.05;9.00;;;;;;;13.64;50.17;99269.53;5008536;28;20440;-77
2022/04/24 07:33:46;;;;;;;11.40;8.75;;;;;;;13.94;50.39;99278.09;5010049;28;20042;-77
2022/04/24 07:36:11;;;;;;;12.23;8.73;;;;;;;14.13;49.69;99276.41;5007878;28;20038;-77
2022/04/24 07:38:37;;;;;;;14.27;9.23;;;;;;;14.30;48.68;99270.41;5005571;28;20064;-77
2022/04/24 07:41:03;;;;;;;14.82;8.43;;;;;;;14.41;48.21;99262.88;5009118;28;20116;-77
2022/04/24 07:43:29;;;;;;;11.00;8.45;;;;;;;14.64;47.73;99263.72;5005520;28;20066;-77
2022/04/24 07:45:54;;;;;;;10.25;7.60;;;;;;;14.77;46.26;99262.25;5011553;28;20412;-77
2022/04/24 07:48:19;;;;;;;10.10;7.13;;;;;;;14.88;46.33;99252.03;5001209;28;20601;-76
2022/04/24 07:50:50;;;;;;;10.30;8.05;;;;;;;14.94;45.61;99256.22;5006526;28;20049;-77
2022/04/24 07:53:16;;;;;;;9.90;7.00;;;;;;;14.95;45.40;99262.38;5010892;28;20550;-78
2022/04/24 07:55:46;;;;;;;8.73;7.00;;;;;;;15.03;45.57;99252.28;5010342;28;20034;-76
2022/04/24 07:58:12;;;;;;;9.85;6.55;;;;;;;15.07;45.01;99249.41;5014241;28;20106;-78
2022/04/24 08:00:38;;;;;;;13.38;6.63;;;;;;;15.09;44.48;99250.22;5008686;28;20053;-78
2022/04/24 08:03:11;;;;;;;9.70;6.85;;;;;;;15.20;43.72;99254.19;5020293;28;20033;-78
2022/04/24 08:05:47;;;;;;;7.90;6.03;;;;;;;15.29;43.93;99245.78;5016292;28;20037;-77
2022/04/24 08:08:20;;;;;;;7.78;5.90;;;;;;;15.38;42.75;99234.72;5013015;28;20121;-78
2022/04/24 08:10:48;;;;;;;7.47;5.40;;;;;;;15.59;43.10;99240.84;5015459;28;20587;-77
2022/04/24 08:13:13;;;;;;;9.13;5.95;;;;;;;15.79;42.20;99242.56;5015901;28;20036;-78
2022/04/24 08:15:39;;;;;;;8.25;6.00;;;;;;;15.92;41.10;99240.19;5008414;28;20110;-76
2022/04/24 08:18:05;;;;;;;8.38;5.30;;;;;;;16.14;40.79;99245.31;5013592;28;20040;-77
2022/04/24 08:20:31;;;;;;;8.25;5.57;;;;;;;16.30;39.95;99240.09;5008966;28;20110;-77
2022/04/24 08:22:59;;;;;;;7.88;5.40;;;;;;;16.52;40.11;99238.06;5010741;28;20045;-78
2022/04/24 08:25:26;;;;;;;7.20;5.05;;;;;;;16.65;39.86;99236.47;5011353;28;20480;-78
2022/04/24 08:27:53;;;;;;;10.88;6.18;;;;;;;16.70;40.07;99238.91;5010309;28;20601;-78
2022/04/24 08:30:20;;;;;;;7.82;5.18;;;;;;;16.72;39.39;99247.69;5012004;28;20045;-78
2022/04/24 08:32:46;;;;;;;11.52;5.70;;;;;;;16.83;38.56;99239.16;5009519;28;20030;-78
2022/04/24 08:35:14;;;;;;;7.32;5.35;;;;;;;16.98;39.03;99237.50;5011129;28;20041;-78
2022/04/24 08:37:41;;;;;;;7.65;5.30;;;;;;;17.09;38.32;99241.31;5009130;28;20037;-78
2022/04/24 08:40:08;;;;;;;8.38;5.72;;;;;;;17.02;37.42;99236.38;5012738;28;20068;-77
2022/04/24 08:42:34;;;;;;;11.52;4.38;;;;;;;17.02;37.60;99244.38;5010339;28;20129;-79
2022/04/24 08:45:00;;;;;;;6.78;4.80;;;;;;;17.27;37.98;99244.81;5023581;28;20125;-78
2022/04/24 08:47:26;;;;;;;7.38;4.63;;;;;;;17.44;37.36;99235.88;5012255;28;20484;-78
2022/04/24 08:49:57;;;;;;;8.43;5.15;;;;;;;17.52;36.49;99235.44;5009909;28;20038;-78
2022/04/24 08:52:24;;;;;;;7.20;4.25;;;;;;;17.67;37.17;99231.06;5012519;28;20088;-78
2022/04/24 08:54:51;;;;;;;5.82;4.45;;;;;;;17.72;36.18;99229.88;5028102;28;20048;-78
2022/04/24 08:57:17;;;;;;;6.40;4.38;;;;;;;17.90;36.37;99225.34;5010233;28;20056;-78
2022/04/24 08:59:43;;;;;;;7.82;4.70;;;;;;;18.06;35.72;99221.78;5011977;28;20052;-78
2022/04/24 09:02:10;;;;;;;9.38;4.13;;;;;;;18.13;35.64;99225.78;5010954;28;20057;-78
2022/04/24 09:04:37;;;;;;;7.05;4.18;;;;;;;18.15;35.01;99219.41;5011782;28;20030;-78
2022/04/24 09:07:08;;;;;;;8.45;4.10;;;;;;;18.28;35.40;99216.91;5013896;28;20056;-79
2022/04/24 09:09:42;;;;;;;10.75;4.28;;;;;;;18.30;34.12;99215.00;5010329;28;20049;-78
2022/04/24 09:12:09;;;;;;;10.10;4.53;;;;;;;18.32;35.51;99226.47;5025800;28;20053;-78
2022/04/24 09:14:34;;;;;;;11.10;3.97;;;;;;;18.30;35.00;99230.16;5017491;28;20081;-78
2022/04/24 09:17:04;;;;;;;6.22;4.20;;;;;;;18.36;34.30;99219.97;5012485;28;20053;-78
2022/04/24 09:19:30;;;;;;;6.32;4.20;;;;;;;18.44;35.28;99214.19;5029822;28;20046;-77
2022/04/24 09:22:06;;;;;;;8.75;4.30;;;;;;;18.70;34.23;99225.97;5012616;28;20087;-79
2022/04/24 09:24:49;;;;;;;9.55;4.93;;;;;;;18.60;33.95;99208.78;4994752;28;20038;-77
2022/04/24 09:27:24;;;;;;;10.05;4.75;;;;;;;18.80;34.41;99203.13;5016756;28;20038;-78
2022/04/24 09:29:52;;;;;;;7.32;4.40;;;;;;;19.08;34.46;99217.47;5014626;28;20046;-79
2022/04/24 09:32:17;;;;;;;7.93;4.32;;;;;;;19.19;33.62;99208.78;5016358;28;20037;-79
2022/04/24 09:34:42;;;;;;;7.90;4.38;;;;;;;19.08;33.30;99212.13;5014719;28;20030;-79
2022/04/24 09:37:09;;;;;;;6.03;4.15;;;;;;;19.03;33.23;99204.38;5022917;28;20053;-77
2022/04/24 09:39:36;;;;;;;7.07;5.18;;;;;;;19.09;32.64;99213.81;5021489;28;20065;-80
2022/04/24 09:42:03;;;;;;;7.50;4.60;;;;;;;19.16;32.79;99207.16;5016943;28;20033;-76
2022/04/24 09:44:44;;;;;;;8.60;4.05;;;;;;;19.30;32.77;99202.75;5016805;28;20058;-78
2022/04/24 09:47:10;;;;;;;5.93;4.25;;;;;;;19.35;32.79;99206.84;5019766;28;20045;-78
2022/04/24 09:49:38;;;;;;;8.85;4.30;;;;;;;19.37;32.63;99214.78;5021856;28;20038;-78
2022/04/24 09:52:11;;;;;;;8.73;4.45;;;;;;;19.46;33.04;99215.03;5017635;28;20033;-78
2022/04/24 09:54:42;;;;;;;11.35;4.07;;;;;;;19.57;32.22;99206.34;5014104;28;20072;-80
2022/04/24 09:57:09;;;;;;;9.23;3.77;;;;;;;19.72;32.47;99206.34;5015790;28;20034;-79
2022/04/24 09:59:43;;;;;;;7.85;3.92;;;;;;;19.89;31.85;99216.81;5015361;28;20029;-78
2022/04/24 10:02:10;;;;;;;8.02;4.53;;;;;;;20.01;31.69;99207.94;5011553;28;20057;-78
2022/04/24 10:04:38;;;;;;;9.43;3.80;;;;;;;20.08;30.98;99208.41;5013200;28;20046;-78
2022/04/24 10:07:07;;;;;;;7.07;3.72;;;;;;;20.12;30.28;99197.41;5013513;28;20030;-80
2022/04/24 10:09:38;;;;;;;9.35;4.38;;;;;;;20.13;31.47;99201.78;5020212;28;20052;-77
2022/04/24 10:12:10;;;;;;;10.85;3.70;;;;;;;20.35;31.46;99197.66;5024982;28;20496;-77
2022/04/24 10:14:53;;;;;;;8.65;3.67;;;;;;;20.66;30.89;99207.19;5018222;28;20034;-78
2022/04/24 10:17:40;;;;;;;6.22;3.53;;;;;;;20.78;29.90;99200.13;5015275;28;20030;-78
2022/04/24 10:20:27;;;;;;;8.68;4.05;;;;;;;20.86;30.51;99195.09;5032562;28;20110;-78
2022/04/24 10:22:53;;;;;;;9.02;3.92;;;;;;;20.76;30.12;99189.50;5029051;28;20045;-79
2022/04/24 10:25:29;;;;;;;6.05;3.67;;;;;;;20.65;29.66;99185.88;5011752;28;20495;-76
2022/04/24 10:27:54;;;;;;;5.53;3.70;;;;;;;20.64;30.57;99193.03;5005477;28;20463;-77
2022/04/24 10:30:24;;;;;;;9.25;3.67;;;;;;;20.67;30.78;99184.78;5013374;28;20109;-77
2022/04/24 10:33:15;;;;;;;8.55;4.03;;;;;;;20.46;30.48;99192.47;5016909;28;20057;-76
2022/04/24 10:35:51;;;;;;;8.02;3.40;;;;;;;20.26;30.33;99196.47;5005384;28;20042;-77
2022/04/24 10:38:18;;;;;;;8.25;4.03;;;;;;;20.20;30.79;99187.97;5007175;28;20476;-76
2022/04/24 10:40:58;;;;;;;6.50;3.90;;;;;;;20.08;30.63;99193.22;5000860;28;20065;-77
2022/04/24 10:43:25;;;;;;;7.10;3.75;;;;;;;19.75;30.62;99184.72;5008848;28;20076;-77
2022/04/24 10:45:52;;;;;;;6.25;3.50;;;;;;;19.68;31.30;99182.44;5004451;28;20042;-77
2022/04/24 10:48:17;;;;;;;7.85;3.78;;;;;;;19.67;31.09;99183.41;5006181;28;20103;-76
2022/04/24 10:50:49;;;;;;;11.23;3.47;;;;;;;19.72;31.41;99176.91;5003130;28;20050;-77
2022/04/24 10:53:15;;;;;;;5.38;3.60;;;;;;;19.58;31.52;99178.63;5004114;28;20153;-77
2022/04/24 10:55:42;;;;;;;6.47;3.40;;;;;;;19.63;31.24;99187.22;5005585;28;20041;-77
2022/04/24 10:58:09;;;;;;;8.35;3.20;;;;;;;19.85;31.30;99184.00;5002166;28;20447;-76
2022/04/24 11:00:37;;;;;;;8.50;3.10;;;;;;;19.98;31.10;99176.03;5003318;28;20038;-76
2022/04/24 11:03:14;;;;;;;6.22;3.15;;;;;;;20.11;30.40;99181.44;5003458;28;20053;-77
2022/04/24 11:05:42;;;;;;;6.35;3.45;;;;;;;20.21;30.48;99176.31;4998463;28;20041;-75
2022/04/24 11:08:09;;;;;;;6.25;3.38;;;;;;;20.14;30.40;99167.81;5002501;28;20139;-75
2022/04/24 11:10:39;;;;;;;5.65;3.00;;;;;;;20.36;30.80;99172.59;5005413;28;20045;-76
2022/04/24 11:13:08;;;;;;;6.97;3.17;;;;;;;20.62;30.62;99172.66;5001564;28;20049;-75
2022/04/24 11:15:34;;;;;;;8.93;3.33;;;;;;;20.46;29.13;99157.63;5008818;28;20040;-77
2022/04/24 11:17:59;;;;;;;6.40;3.25;;;;;;;20.43;30.27;99170.34;5007838;28;20411;-75
2022/04/24 11:20:31;;;;;;;4.85;3.28;;;;;;;20.46;30.29;99171.03;5004352;28;20038;-77
2022/04/24 11:22:56;;;;;;;5.38;3.17;;;;;;;20.33;29.81;99167.44;5003380;28;20176;-77
2022/04/24 11:25:27;;;;;;;6.25;3.28;;;;;;;20.09;29.81;99168.13;5002686;28;20113;-75
2022/04/24 11:27:58;;;;;;;5.38;3.28;;;;;;;19.89;30.31;99165.94;5004309;28;20073;-76